sensor_id;sensor_type;location;lat;lon;timestamp;pressure;altitude;pressure_sealevel;temperature;humidity
66560;BME280;53413;49.878;8.142;2023-04-19T00:02:21;100760.34;;;9.06;100.00
66560;BME280;53413;49.878;8.142;2023-04-19T00:04:46;100755.97;;;9.08;100.00
66560;BME280;53413;49.878;8.142;2023-04-19T00:07:12;100749.03;;;9.05;100.00
66560;BME280;53413;49.878;8.142;2023-04-19T00:09:38;100759.63;;;8.99;100.00
66560;BME280;53413;49.878;8.142;2023-04-19T00:12:04;100748.38;;;8.94;100.00
66560;BME280;53413;49.878;8.142;2023-04-19T00:14:29;100751.91;;;8.91;100.00
66560;BME280;53413;49.878;8.142;2023-04-19T00:16:54;100751.09;;;8.89;100.00
66560;BME280;53413;49.878;8.142;2023-04-19T00:19:20;100743.25;;;8.89;100.00
66560;BME280;53413;49.878;8.142;2023-04-19T00:21:46;100743.19;;;8.91;100.00
66560;BME280;53413;49.878;8.142;2023-04-19T00:24:12;100745.75;;;8.96;100.00
66560;BME280;53413;49.878;8.142;2023-04-19T00:26:37;100745.66;;;8.99;100.00
66560;BME280;53413;49.878;8.142;2023-04-19T00:29:02;100743.84;;;9.02;100.00
66560;BME280;53413;49.878;8.142;2023-04-19T00:31:28;100741.97;;;9.09;100.00
66560;BME280;53413;49.878;8.142;2023-04-19T00:33:53;100744.44;;;9.17;100.00
66560;BME280;53413;49.878;8.142;2023-04-19T00:36:19;100739.97;;;9.22;100.00
66560;BME280;53413;49.878;8.142;2023-04-19T00:38:44;100736.44;;;9.24;100.00
66560;BME280;53413;49.878;8.142;2023-04-19T00:41:10;100738.09;;;9.29;100.00
66560;BME280;53413;49.878;8.142;2023-04-19T00:43:35;100728.50;;;9.29;100.00
66560;BME280;53413;49.878;8.142;2023-04-19T00:46:01;100727.59;;;9.32;100.00
66560;BME280;53413;49.878;8.142;2023-04-19T00:48:26;100729.25;;;9.34;100.00
66560;BME280;53413;49.878;8.142;2023-04-19T00:50:53;100728.31;;;9.37;100.00
66560;BME280;53413;49.878;8.142;2023-04-19T00:53:19;100726.50;;;9.40;100.00
66560;BME280;53413;49.878;8.142;2023-04-19T00:55:44;100728.16;;;9.45;100.00
66560;BME280;53413;49.878;8.142;2023-04-19T00:58:10;100722.00;;;9.47;100.00
66560;BME280;53413;49.878;8.142;2023-04-19T01:00:36;100723.72;;;9.48;100.00
66560;BME280;53413;49.878;8.142;2023-04-19T01:03:01;100719.28;;;9.52;100.00
66560;BME280;53413;49.878;8.142;2023-04-19T01:05:26;100713.19;;;9.51;100.00
66560;BME280;53413;49.878;8.142;2023-04-19T01:07:52;100714.97;;;9.49;100.00
66560;BME280;53413;49.878;8.142;2023-04-19T01:10:17;100705.34;;;9.51;100.00
66560;BME280;53413;49.878;8.142;2023-04-19T01:12:42;100714.03;;;9.52;100.00
66560;BME280;53413;49.878;8.142;2023-04-19T01:15:08;100707.91;;;9.53;100.00
66560;BME280;53413;49.878;8.142;2023-04-19T01:17:34;100708.75;;;9.55;100.00
66560;BME280;53413;49.878;8.142;2023-04-19T01:20:00;100704.38;;;9.55;100.00
66560;BME280;53413;49.878;8.142;2023-04-19T01:22:26;100699.16;;;9.55;100.00
66560;BME280;53413;49.878;8.142;2023-04-19T01:24:52;100703.44;;;9.58;100.00
66560;BME280;53413;49.878;8.142;2023-04-19T01:27:18;100702.56;;;9.59;100.00
66560;BME280;53413;49.878;8.142;2023-04-19T01:29:44;100692.03;;;9.61;100.00
66560;BME280;53413;49.878;8.142;2023-04-19T01:32:09;100701.63;;;9.62;100.00
66560;BME280;53413;49.878;8.142;2023-04-19T01:34:37;100692.94;;;9.61;100.00
66560;BME280;53413;49.878;8.142;2023-04-19T01:37:02;100691.16;;;9.62;100.00
66560;BME280;53413;49.878;8.142;2023-04-19T01:39:27;100693.72;;;9.63;100.00
66560;BME280;53413;49.878;8.142;2023-04-19T01:41:53;100692.81;;;9.64;100.00
66560;BME280;53413;49.878;8.142;2023-04-19T01:44:18;100691.97;;;9.64;100.00
66560;BME280;53413;49.878;8.142;2023-04-19T01:46:44;100691.97;;;9.64;100.00
66560;BME280;53413;49.878;8.142;2023-04-19T01:49:09;100685.88;;;9.63;100.00
66560;BME280;53413;49.878;8.142;2023-04-19T01:51:37;100683.31;;;9.62;100.00
66560;BME280;53413;49.878;8.142;2023-04-19T01:54:03;100686.81;;;9.61;100.00
66560;BME280;53413;49.878;8.142;2023-04-19T01:56:28;100685.06;;;9.61;100.00
66560;BME280;53413;49.878;8.142;2023-04-19T01:58:54;100680.72;;;9.60;100.00
66560;BME280;53413;49.878;8.142;2023-04-19T02:01:19;100674.63;;;9.60;100.00
66560;BME280;53413;49.878;8.142;2023-04-19T02:03:44;100680.75;;;9.59;100.00
66560;BME280;53413;49.878;8.142;2023-04-19T02:06:11;100673.78;;;9.58;100.00
66560;BME280;53413;49.878;8.142;2023-04-19T02:08:40;100674.69;;;9.57;100.00
66560;BME280;53413;49.878;8.142;2023-04-19T02:11:07;100669.50;;;9.55;100.00
66560;BME280;53413;49.878;8.142;2023-04-19T02:13:32;100671.28;;;9.54;100.00
66560;BME280;53413;49.878;8.142;2023-04-19T02:15:58;100666.03;;;9.54;100.00
66560;BME280;53413;49.878;8.142;2023-04-19T02:18:25;100656.41;;;9.55;100.00
66560;BME280;53413;49.878;8.142;2023-04-19T02:20:50;100656.38;;;9.57;100.00
66560;BME280;53413;49.878;8.142;2023-04-19T02:23:16;100660.72;;;9.58;100.00
66560;BME280;53413;49.878;8.142;2023-04-19T02:25:41;100658.97;;;9.58;100.00
66560;BME280;53413;49.878;8.142;2023-04-19T02:28:06;100666.81;;;9.58;100.00
66560;BME280;53413;49.878;8.142;2023-04-19T02:30:32;100662.44;;;9.59;100.00
66560;BME280;53413;49.878;8.142;2023-04-19T02:32:57;100663.31;;;9.58;100.00
66560;BME280;53413;49.878;8.142;2023-04-19T02:35:22;100665.06;;;9.59;100.00
66560;BME280;53413;49.878;8.142;2023-04-19T02:37:48;100656.38;;;9.57;100.00
66560;BME280;53413;49.878;8.142;2023-04-19T02:40:13;100662.53;;;9.54;100.00
66560;BME280;53413;49.878;8.142;2023-04-19T02:42:38;100664.31;;;9.53;100.00
66560;BME280;53413;49.878;8.142;2023-04-19T02:45:04;100662.59;;;9.51;100.00
66560;BME280;53413;49.878;8.142;2023-04-19T02:47:30;100647.84;;;9.48;100.00
66560;BME280;53413;49.878;8.142;2023-04-19T02:49:55;100647.91;;;9.47;100.00
66560;BME280;53413;49.878;8.142;2023-04-19T02:52:20;100655.75;;;9.45;100.00
66560;BME280;53413;49.878;8.142;2023-04-19T02:54:47;100650.53;;;9.45;100.00
66560;BME280;53413;49.878;8.142;2023-04-19T02:57:12;100650.53;;;9.45;100.00
66560;BME280;53413;49.878;8.142;2023-04-19T02:59:37;100646.19;;;9.46;100.00
66560;BME280;53413;49.878;8.142;2023-04-19T03:02:03;100647.91;;;9.45;100.00
66560;BME280;53413;49.878;8.142;2023-04-19T03:04:28;100651.44;;;9.44;100.00
66560;BME280;53413;49.878;8.142;2023-04-19T03:06:55;100651.53;;;9.41;100.00
66560;BME280;53413;49.878;8.142;2023-04-19T03:09:20;100651.53;;;9.39;100.00
66560;BME280;53413;49.878;8.142;2023-04-19T03:11:46;100639.34;;;9.38;100.00
66560;BME280;53413;49.878;8.142;2023-04-19T03:14:11;100642.88;;;9.37;100.00
66560;BME280;53413;49.878;8.142;2023-04-19T03:16:36;100643.72;;;9.38;100.00
66560;BME280;53413;49.878;8.142;2023-04-19T03:19:02;100647.25;;;9.37;100.00
66560;BME280;53413;49.878;8.142;2023-04-19T03:21:27;100646.41;;;9.36;100.00
66560;BME280;53413;49.878;8.142;2023-04-19T03:23:54;100635.06;;;9.36;100.00
66560;BME280;53413;49.878;8.142;2023-04-19T03:26:19;100635.06;;;9.36;100.00
66560;BME280;53413;49.878;8.142;2023-04-19T03:28:45;100633.31;;;9.36;100.00
66560;BME280;53413;49.878;8.142;2023-04-19T03:31:10;100635.06;;;9.36;100.00
66560;BME280;53413;49.878;8.142;2023-04-19T03:33:35;100632.44;;;9.37;100.00
66560;BME280;53413;49.878;8.142;2023-04-19T03:36:01;100623.69;;;9.37;100.00
66560;BME280;53413;49.878;8.142;2023-04-19T03:38:27;100616.72;;;9.37;100.00
66560;BME280;53413;49.878;8.142;2023-04-19T03:40:52;100614.13;;;9.36;100.00
66560;BME280;53413;49.878;8.142;2023-04-19T03:43:18;100612.34;;;9.38;100.00
66560;BME280;53413;49.878;8.142;2023-04-19T03:45:43;100621.03;;;9.40;100.00
66560;BME280;53413;49.878;8.142;2023-04-19T03:48:08;100615.84;;;9.37;100.00
66560;BME280;53413;49.878;8.142;2023-04-19T03:50:34;100612.41;;;9.35;100.00
66560;BME280;53413;49.878;8.142;2023-04-19T03:52:59;100605.47;;;9.34;100.00
66560;BME280;53413;49.878;8.142;2023-04-19T03:55:24;100609.84;;;9.33;100.00
66560;BME280;53413;49.878;8.142;2023-04-19T03:57:50;100609.06;;;9.30;100.00
66560;BME280;53413;49.878;8.142;2023-04-19T04:00:15;100610.84;;;9.28;100.00
66560;BME280;53413;49.878;8.142;2023-04-19T04:02:41;100611.78;;;9.25;100.00
66560;BME280;53413;49.878;8.142;2023-04-19T04:05:06;100613.53;;;9.24;100.00
66560;BME280;53413;49.878;8.142;2023-04-19T04:07:32;100610.13;;;9.21;100.00
66560;BME280;53413;49.878;8.142;2023-04-19T04:09:57;100613.69;;;9.18;100.00
66560;BME280;53413;49.878;8.142;2023-04-19T04:12:23;100606.72;;;9.17;100.00
66560;BME280;53413;49.878;8.142;2023-04-19T04:14:48;100610.22;;;9.16;100.00
66560;BME280;53413;49.878;8.142;2023-04-19T04:17:13;100616.31;;;9.17;100.00
66560;BME280;53413;49.878;8.142;2023-04-19T04:19:38;100622.41;;;9.17;100.00
66560;BME280;53413;49.878;8.142;2023-04-19T04:22:04;100618.91;;;9.18;100.00
66560;BME280;53413;49.878;8.142;2023-04-19T04:24:30;100616.19;;;9.21;100.00
66560;BME280;53413;49.878;8.142;2023-04-19T04:26:57;100622.19;;;9.27;100.00
66560;BME280;53413;49.878;8.142;2023-04-19T04:29:24;100619.53;;;9.30;100.00
66560;BME280;53413;49.878;8.142;2023-04-19T04:31:50;100616.78;;;9.34;100.00
66560;BME280;53413;49.878;8.142;2023-04-19T04:34:15;100618.47;;;9.37;100.00
66560;BME280;53413;49.878;8.142;2023-04-19T04:36:41;100621.03;;;9.38;100.00
66560;BME280;53413;49.878;8.142;2023-04-19T04:39:06;100625.38;;;9.39;100.00
66560;BME280;53413;49.878;8.142;2023-04-19T04:41:34;100628.88;;;9.40;100.00
66560;BME280;53413;49.878;8.142;2023-04-19T04:44:00;100623.63;;;9.40;100.00
66560;BME280;53413;49.878;8.142;2023-04-19T04:46:28;100625.31;;;9.43;100.00
66560;BME280;53413;49.878;8.142;2023-04-19T04:48:54;100623.53;;;9.45;100.00
66560;BME280;53413;49.878;8.142;2023-04-19T04:51:19;100626.03;;;9.49;100.00
66560;BME280;53413;49.878;8.142;2023-04-19T04:53:45;100618.06;;;9.54;100.00
66560;BME280;53413;49.878;8.142;2023-04-19T04:56:11;100626.69;;;9.59;100.00
66560;BME280;53413;49.878;8.142;2023-04-19T04:58:36;100624.78;;;9.64;100.00
66560;BME280;53413;49.878;8.142;2023-04-19T05:01:02;100627.28;;;9.69;100.00
66560;BME280;53413;49.878;8.142;2023-04-19T05:03:28;100622.81;;;9.74;100.00
66560;BME280;53413;49.878;8.142;2023-04-19T05:05:53;100623.56;;;9.79;100.00
66560;BME280;53413;49.878;8.142;2023-04-19T05:08:18;100625.19;;;9.83;100.00
66560;BME280;53413;49.878;8.142;2023-04-19T05:10:44;100618.03;;;9.90;100.00
66560;BME280;53413;49.878;8.142;2023-04-19T05:13:09;100610.84;;;9.98;100.00
66560;BME280;53413;49.878;8.142;2023-04-19T05:15:35;100612.22;;;10.13;100.00
66560;BME280;53413;49.878;8.142;2023-04-19T05:18:01;100608.44;;;10.24;100.00
66560;BME280;53413;49.878;8.142;2023-04-19T05:20:28;100604.72;;;10.32;100.00
66560;BME280;53413;49.878;8.142;2023-04-19T05:22:57;100610.56;;;10.42;100.00
66560;BME280;53413;49.878;8.142;2023-04-19T05:25:23;100597.41;;;10.45;100.00
66560;BME280;53413;49.878;8.142;2023-04-19T05:27:48;100613.94;;;10.47;100.00
66560;BME280;53413;49.878;8.142;2023-04-19T05:30:13;100613.13;;;10.45;100.00
66560;BME280;53413;49.878;8.142;2023-04-19T05:32:39;100604.44;;;10.43;100.00
66560;BME280;53413;49.878;8.142;2023-04-19T05:35:04;100592.97;;;10.47;100.00
66560;BME280;53413;49.878;8.142;2023-04-19T05:37:30;100599.88;;;10.52;100.00
66560;BME280;53413;49.878;8.142;2023-04-19T05:39:55;100609.25;;;10.59;100.00
66560;BME280;53413;49.878;8.142;2023-04-19T05:42:22;100606.00;;;10.51;100.00
66560;BME280;53413;49.878;8.142;2023-04-19T05:44:47;100594.78;;;10.45;100.00
66560;BME280;53413;49.878;8.142;2023-04-19T05:47:12;100596.50;;;10.46;100.00
66560;BME280;53413;49.878;8.142;2023-04-19T05:49:38;100597.25;;;10.52;100.00
66560;BME280;53413;49.878;8.142;2023-04-19T05:52:03;100599.75;;;10.55;100.00
66560;BME280;53413;49.878;8.142;2023-04-19T05:54:29;100603.25;;;10.55;100.00
66560;BME280;53413;49.878;8.142;2023-04-19T05:56:58;100591.88;;;10.55;100.00
66560;BME280;53413;49.878;8.142;2023-04-19T05:59:23;100598.78;;;10.59;100.00
66560;BME280;53413;49.878;8.142;2023-04-19T06:01:49;100600.53;;;10.58;100.00
66560;BME280;53413;49.878;8.142;2023-04-19T06:04:14;100605.81;;;10.57;100.00
66560;BME280;53413;49.878;8.142;2023-04-19T06:06:39;100599.63;;;10.59;100.00
66560;BME280;53413;49.878;8.142;2023-04-19T06:09:05;100599.59;;;10.61;100.00
66560;BME280;53413;49.878;8.142;2023-04-19T06:11:31;100596.97;;;10.61;100.00
66560;BME280;53413;49.878;8.142;2023-04-19T06:13:57;100607.25;;;10.67;100.00
66560;BME280;53413;49.878;8.142;2023-04-19T06:16:22;100600.13;;;10.72;100.00
66560;BME280;53413;49.878;8.142;2023-04-19T06:18:47;100605.03;;;10.83;100.00
66560;BME280;53413;49.878;8.142;2023-04-19T06:21:13;100606.53;;;10.92;100.00
66560;BME280;53413;49.878;8.142;2023-04-19T06:23:38;100605.94;;;11.12;100.00
66560;BME280;53413;49.878;8.142;2023-04-19T06:26:03;100606.22;;;11.31;100.00
66560;BME280;53413;49.878;8.142;2023-04-19T06:28:29;100609.69;;;11.60;100.00
66560;BME280;53413;49.878;8.142;2023-04-19T06:30:54;100612.50;;;11.81;100.00
66560;BME280;53413;49.878;8.142;2023-04-19T06:33:19;100613.25;;;11.84;100.00
66560;BME280;53413;49.878;8.142;2023-04-19T06:35:45;100616.81;;;12.09;100.00
66560;BME280;53413;49.878;8.142;2023-04-19T06:38:10;100607.09;;;13.95;100.00
66560;BME280;53413;49.878;8.142;2023-04-19T06:40:35;100611.84;;;14.47;100.00
66560;BME280;53413;49.878;8.142;2023-04-19T06:43:01;100608.78;;;14.37;100.00
66560;BME280;53413;49.878;8.142;2023-04-19T06:45:26;100607.47;;;14.06;100.00
66560;BME280;53413;49.878;8.142;2023-04-19T06:47:52;100615.25;;;13.89;100.00
66560;BME280;53413;49.878;8.142;2023-04-19T06:50:17;100606.31;;;13.50;100.00
66560;BME280;53413;49.878;8.142;2023-04-19T06:52:42;100610.16;;;13.19;100.00
66560;BME280;53413;49.878;8.142;2023-04-19T06:55:08;100615.63;;;12.90;100.00
66560;BME280;53413;49.878;8.142;2023-04-19T06:57:34;100612.56;;;12.79;100.00
66560;BME280;53413;49.878;8.142;2023-04-19T06:59:59;100616.94;;;12.78;100.00
66560;BME280;53413;49.878;8.142;2023-04-19T07:02:25;100608.13;;;12.80;100.00
66560;BME280;53413;49.878;8.142;2023-04-19T07:04:50;100605.97;;;12.67;100.00
66560;BME280;53413;49.878;8.142;2023-04-19T07:07:15;100608.84;;;12.61;100.00
66560;BME280;53413;49.878;8.142;2023-04-19T07:09:41;100607.69;;;12.44;100.00
66560;BME280;53413;49.878;8.142;2023-04-19T07:12:07;100620.66;;;12.49;100.00
66560;BME280;53413;49.878;8.142;2023-04-19T07:14:32;100610.09;;;12.51;100.00
66560;BME280;53413;49.878;8.142;2023-04-19T07:16:57;100613.09;;;12.40;100.00
66560;BME280;53413;49.878;8.142;2023-04-19T07:19:23;100606.38;;;12.32;100.00
66560;BME280;53413;49.878;8.142;2023-04-19T07:21:49;100606.31;;;12.34;100.00
66560;BME280;53413;49.878;8.142;2023-04-19T07:24:14;100606.47;;;12.29;100.00
66560;BME280;53413;49.878;8.142;2023-04-19T07:26:40;100609.31;;;12.23;100.00
66560;BME280;53413;49.878;8.142;2023-04-19T07:29:05;100606.19;;;12.12;100.00
66560;BME280;53413;49.878;8.142;2023-04-19T07:31:31;100604.09;;;11.96;100.00
66560;BME280;53413;49.878;8.142;2023-04-19T07:33:56;100603.28;;;11.94;100.00
66560;BME280;53413;49.878;8.142;2023-04-19T07:36:21;100603.09;;;12.00;100.00
66560;BME280;53413;49.878;8.142;2023-04-19T07:38:47;100604.31;;;12.15;100.00
66560;BME280;53413;49.878;8.142;2023-04-19T07:41:12;100602.13;;;12.28;100.00
66560;BME280;53413;49.878;8.142;2023-04-19T07:43:38;100607.16;;;12.35;100.00
66560;BME280;53413;49.878;8.142;2023-04-19T07:46:10;100594.13;;;12.31;100.00
66560;BME280;53413;49.878;8.142;2023-04-19T07:48:36;100598.47;;;12.32;100.00
66560;BME280;53413;49.878;8.142;2023-04-19T07:51:13;100600.31;;;12.30;100.00
66560;BME280;53413;49.878;8.142;2023-04-19T07:53:40;100602.88;;;12.32;100.00
66560;BME280;53413;49.878;8.142;2023-04-19T07:56:07;100594.47;;;12.46;100.00
66560;BME280;53413;49.878;8.142;2023-04-19T07:58:36;100594.03;;;12.58;100.00
66560;BME280;53413;49.878;8.142;2023-04-19T08:01:02;100589.91;;;12.75;100.00
66560;BME280;53413;49.878;8.142;2023-04-19T08:03:28;100602.47;;;12.90;100.00
66560;BME280;53413;49.878;8.142;2023-04-19T08:05:54;100593.84;;;12.87;98.52
66560;BME280;53413;49.878;8.142;2023-04-19T08:08:19;100590.25;;;12.89;97.60
66560;BME280;53413;49.878;8.142;2023-04-19T08:10:44;100592.88;;;12.89;96.20
66560;BME280;53413;49.878;8.142;2023-04-19T08:13:10;100587.00;;;12.83;95.94
66560;BME280;53413;49.878;8.142;2023-04-19T08:15:35;100586.50;;;12.95;96.69
66560;BME280;53413;49.878;8.142;2023-04-19T08:18:01;100584.31;;;13.06;95.54
66560;BME280;53413;49.878;8.142;2023-04-19T08:20:29;100582.19;;;13.16;93.03
66560;BME280;53413;49.878;8.142;2023-04-19T08:22:55;100584.88;;;13.15;93.17
66560;BME280;53413;49.878;8.142;2023-04-19T08:25:20;100580.16;;;13.23;91.64
66560;BME280;53413;49.878;8.142;2023-04-19T08:27:50;100575.94;;;13.19;93.29
66560;BME280;53413;49.878;8.142;2023-04-19T08:30:16;100579.41;;;13.19;93.51
66560;BME280;53413;49.878;8.142;2023-04-19T08:32:41;100572.63;;;13.14;92.38
66560;BME280;53413;49.878;8.142;2023-04-19T08:35:07;100580.31;;;13.18;90.52
66560;BME280;53413;49.878;8.142;2023-04-19T08:37:32;100574.03;;;13.22;88.94
66560;BME280;53413;49.878;8.142;2023-04-19T08:39:58;100574.16;;;13.19;88.46
66560;BME280;53413;49.878;8.142;2023-04-19T08:42:24;100577.84;;;13.15;87.78
66560;BME280;53413;49.878;8.142;2023-04-19T08:44:49;100572.06;;;13.05;87.40
66560;BME280;53413;49.878;8.142;2023-04-19T08:47:15;100570.97;;;13.11;87.83
66560;BME280;53413;49.878;8.142;2023-04-19T08:49:41;100570.19;;;13.31;87.36
66560;BME280;53413;49.878;8.142;2023-04-19T08:52:11;100566.09;;;13.46;86.07
66560;BME280;53413;49.878;8.142;2023-04-19T08:54:37;100567.81;;;13.68;86.65
66560;BME280;53413;49.878;8.142;2023-04-19T08:57:04;100565.50;;;14.01;83.90
66560;BME280;53413;49.878;8.142;2023-04-19T08:59:29;100561.34;;;14.16;82.32
66560;BME280;53413;49.878;8.142;2023-04-19T09:01:55;100560.00;;;14.27;83.09
66560;BME280;53413;49.878;8.142;2023-04-19T09:04:24;100553.81;;;14.28;82.77
66560;BME280;53413;49.878;8.142;2023-04-19T09:06:49;100554.84;;;14.44;81.63
66560;BME280;53413;49.878;8.142;2023-04-19T09:09:26;100553.03;;;14.64;79.72
66560;BME280;53413;49.878;8.142;2023-04-19T09:11:51;100564.16;;;14.72;81.11
66560;BME280;53413;49.878;8.142;2023-04-19T09:14:18;100559.06;;;14.87;79.95
66560;BME280;53413;49.878;8.142;2023-04-19T09:16:44;100555.09;;;15.15;78.24
66560;BME280;53413;49.878;8.142;2023-04-19T09:19:10;100556.44;;;15.41;77.69
66560;BME280;53413;49.878;8.142;2023-04-19T09:21:37;100557.38;;;15.40;75.65
66560;BME280;53413;49.878;8.142;2023-04-19T09:24:06;100550.16;;;15.26;74.58
66560;BME280;53413;49.878;8.142;2023-04-19T09:26:32;100553.84;;;15.04;75.01
66560;BME280;53413;49.878;8.142;2023-04-19T09:29:02;100550.56;;;14.99;75.63
66560;BME280;53413;49.878;8.142;2023-04-19T09:31:29;100552.34;;;14.99;76.90
66560;BME280;53413;49.878;8.142;2023-04-19T09:33:55;100554.66;;;15.24;77.03
66560;BME280;53413;49.878;8.142;2023-04-19T09:36:31;100549.22;;;15.27;73.98
66560;BME280;53413;49.878;8.142;2023-04-19T09:38:57;100545.44;;;15.50;73.33
66560;BME280;53413;49.878;8.142;2023-04-19T09:41:24;100541.00;;;15.68;72.00
66560;BME280;53413;49.878;8.142;2023-04-19T09:43:50;100543.47;;;15.72;71.53
66560;BME280;53413;49.878;8.142;2023-04-19T09:46:33;100531.31;;;15.87;70.94
66560;BME280;53413;49.878;8.142;2023-04-19T09:49:16;100525.19;;;16.20;69.24
66560;BME280;53413;49.878;8.142;2023-04-19T09:51:47;100526.06;;;16.52;67.82
66560;BME280;53413;49.878;8.142;2023-04-19T09:54:14;100522.91;;;16.93;67.42
66560;BME280;53413;49.878;8.142;2023-04-19T09:56:40;100516.81;;;16.91;65.60
66560;BME280;53413;49.878;8.142;2023-04-19T09:59:09;100515.34;;;17.34;65.00
66560;BME280;53413;49.878;8.142;2023-04-19T10:04:06;100503.66;;;19.23;59.30
66560;BME280;53413;49.878;8.142;2023-04-19T10:06:34;100498.81;;;20.33;56.29
66560;BME280;53413;49.878;8.142;2023-04-19T10:09:02;100494.31;;;20.46;54.08
66560;BME280;53413;49.878;8.142;2023-04-19T10:11:33;100498.41;;;20.26;54.33
66560;BME280;53413;49.878;8.142;2023-04-19T10:14:06;100493.56;;;20.07;54.92
66560;BME280;53413;49.878;8.142;2023-04-19T10:16:34;100495.13;;;20.10;56.04
66560;BME280;53413;49.878;8.142;2023-04-19T10:19:04;100497.50;;;20.02;54.18
66560;BME280;53413;49.878;8.142;2023-04-19T10:21:30;100493.72;;;19.52;54.27
66560;BME280;53413;49.878;8.142;2023-04-19T10:23:57;100495.63;;;18.97;55.12
66560;BME280;53413;49.878;8.142;2023-04-19T10:26:23;100496.22;;;18.73;56.73
66560;BME280;53413;49.878;8.142;2023-04-19T10:28:49;100489.19;;;19.14;57.11
66560;BME280;53413;49.878;8.142;2023-04-19T10:31:14;100483.59;;;19.32;55.46
66560;BME280;53413;49.878;8.142;2023-04-19T10:33:43;100475.66;;;19.71;53.49
66560;BME280;53413;49.878;8.142;2023-04-19T10:36:10;100477.25;;;19.73;53.06
66560;BME280;53413;49.878;8.142;2023-04-19T10:38:44;100473.50;;;19.37;53.76
66560;BME280;53413;49.878;8.142;2023-04-19T10:41:14;100467.47;;;19.35;53.36
66560;BME280;53413;49.878;8.142;2023-04-19T10:43:45;100462.50;;;19.95;51.00
66560;BME280;53413;49.878;8.142;2023-04-19T10:48:52;100458.00;;;19.82;50.42
66560;BME280;53413;49.878;8.142;2023-04-19T10:54:06;100457.00;;;19.19;51.82
66560;BME280;53413;49.878;8.142;2023-04-19T11:06:36;100446.75;;;18.72;52.40
66560;BME280;53413;49.878;8.142;2023-04-19T11:09:02;100445.44;;;18.38;53.99
66560;BME280;53413;49.878;8.142;2023-04-19T11:11:35;100444.38;;;18.40;54.58
66560;BME280;53413;49.878;8.142;2023-04-19T11:14:02;100441.56;;;18.29;52.97
66560;BME280;53413;49.878;8.142;2023-04-19T11:16:29;100430.13;;;17.85;52.09
66560;BME280;53413;49.878;8.142;2023-04-19T11:18:54;100426.81;;;17.81;51.54
66560;BME280;53413;49.878;8.142;2023-04-19T11:21:20;100433.81;;;18.11;50.26
66560;BME280;53413;49.878;8.142;2023-04-19T11:23:46;100419.44;;;18.15;50.82
66560;BME280;53413;49.878;8.142;2023-04-19T11:26:14;100422.28;;;18.12;53.21
66560;BME280;53413;49.878;8.142;2023-04-19T11:28:40;100425.91;;;17.97;52.49
66560;BME280;53413;49.878;8.142;2023-04-19T11:31:05;100420.75;;;17.79;52.81
66560;BME280;53413;49.878;8.142;2023-04-19T11:33:35;100421.69;;;17.64;50.96
66560;BME280;53413;49.878;8.142;2023-04-19T11:36:01;100423.28;;;17.37;51.62
66560;BME280;53413;49.878;8.142;2023-04-19T11:38:27;100409.25;;;16.90;51.54
66560;BME280;53413;49.878;8.142;2023-04-19T11:40:59;100423.00;;;16.81;52.75
66560;BME280;53413;49.878;8.142;2023-04-19T11:43:34;100424.03;;;16.95;51.70
66560;BME280;53413;49.878;8.142;2023-04-19T11:46:07;100416.31;;;17.06;52.63
66560;BME280;53413;49.878;8.142;2023-04-19T11:48:33;100413.03;;;17.17;50.96
66560;BME280;53413;49.878;8.142;2023-04-19T11:50:59;100401.78;;;17.13;51.49
66560;BME280;53413;49.878;8.142;2023-04-19T11:53:26;100399.59;;;17.05;50.27
66560;BME280;53413;49.878;8.142;2023-04-19T11:55:56;100398.75;;;16.89;50.24
66560;BME280;53413;49.878;8.142;2023-04-19T11:58:30;100403.94;;;16.90;52.82
66560;BME280;53413;49.878;8.142;2023-04-19T12:03:31;100411.81;;;16.45;52.02
66560;BME280;53413;49.878;8.142;2023-04-19T12:06:00;100407.69;;;15.92;52.00
66560;BME280;53413;49.878;8.142;2023-04-19T12:10:56;100398.75;;;15.94;52.25
66560;BME280;53413;49.878;8.142;2023-04-19T12:13:24;100394.16;;;16.30;52.12
66560;BME280;53413;49.878;8.142;2023-04-19T12:15:49;100389.53;;;16.66;51.05
66560;BME280;53413;49.878;8.142;2023-04-19T12:18:15;100379.72;;;16.82;52.30
66560;BME280;53413;49.878;8.142;2023-04-19T12:20:45;100368.09;;;17.01;50.05
66560;BME280;53413;49.878;8.142;2023-04-19T12:23:12;100374.44;;;16.82;49.92
66560;BME280;53413;49.878;8.142;2023-04-19T12:25:41;100379.28;;;16.59;49.02
66560;BME280;53413;49.878;8.142;2023-04-19T12:28:07;100369.53;;;16.29;49.00
66560;BME280;53413;49.878;8.142;2023-04-19T12:30:34;100370.53;;;16.11;49.63
66560;BME280;53413;49.878;8.142;2023-04-19T12:33:01;100367.38;;;16.20;49.68
66560;BME280;53413;49.878;8.142;2023-04-19T12:35:27;100375.97;;;16.08;48.29
66560;BME280;53413;49.878;8.142;2023-04-19T12:37:54;100384.53;;;16.13;48.74
66560;BME280;53413;49.878;8.142;2023-04-19T12:40:21;100361.25;;;16.04;48.27
66560;BME280;53413;49.878;8.142;2023-04-19T12:42:47;100370.50;;;15.79;48.59
66560;BME280;53413;49.878;8.142;2023-04-19T12:45:13;100372.34;;;15.61;49.51
66560;BME280;53413;49.878;8.142;2023-04-19T12:47:39;100368.06;;;15.58;49.43
66560;BME280;53413;49.878;8.142;2023-04-19T12:50:06;100368.69;;;15.46;48.88
66560;BME280;53413;49.878;8.142;2023-04-19T12:52:32;100363.25;;;15.49;49.09
66560;BME280;53413;49.878;8.142;2023-04-19T12:54:57;100348.03;;;15.54;51.28
66560;BME280;53413;49.878;8.142;2023-04-19T12:57:23;100348.81;;;15.56;47.33
66560;BME280;53413;49.878;8.142;2023-04-19T12:59:49;100353.19;;;15.39;45.62
66560;BME280;53413;49.878;8.142;2023-04-19T13:02:14;100343.72;;;15.35;46.71
66560;BME280;53413;49.878;8.142;2023-04-19T13:05:00;100338.03;;;15.43;46.34
66560;BME280;53413;49.878;8.142;2023-04-19T13:07:28;100342.75;;;15.54;48.18